createdAt,value
2023-04-08T00:00:04.477Z,99680.28
2023-04-08T00:02:39.208Z,99686.91
2023-04-08T00:05:09.036Z,99687.69
2023-04-08T00:07:37.960Z,99685.97
2023-04-08T00:10:08.076Z,99688.50
2023-04-08T00:12:36.949Z,99682.53
2023-04-08T00:15:08.580Z,99687.56
2023-04-08T00:17:37.448Z,99684.91
2023-04-08T00:20:07.144Z,99687.31
2023-04-08T00:22:35.939Z,99692.22
2023-04-08T00:25:07.106Z,99682.88
2023-04-08T00:27:36.341Z,99689.59
2023-04-08T00:30:07.793Z,99689.63
2023-04-08T00:32:36.696Z,99690.50
2023-04-08T00:35:05.982Z,99692.13
2023-04-08T00:37:35.208Z,99687.06
2023-04-08T00:40:04.746Z,99681.94
2023-04-08T00:42:33.607Z,99690.47
2023-04-08T00:45:02.355Z,99691.34
2023-04-08T00:47:33.210Z,99682.81
2023-04-08T00:50:02.125Z,99691.34
2023-04-08T00:52:31.089Z,99686.13
2023-04-08T00:54:59.970Z,99694.50
2023-04-08T00:57:28.873Z,99699.41
2023-04-08T00:59:57.678Z,99701.81
2023-04-08T01:02:32.534Z,99694.28
2023-04-08T01:05:06.895Z,99692.66
2023-04-08T01:07:38.796Z,99701.25
2023-04-08T01:10:17.013Z,99693.59
2023-04-08T01:12:51.979Z,99697.84
2023-04-08T01:15:21.851Z,99695.16
2023-04-08T01:17:55.164Z,99695.97
2023-04-08T01:20:26.739Z,99696.06
2023-04-08T01:23:09.508Z,99701.09
2023-04-08T01:25:40.918Z,99699.25
2023-04-08T01:28:14.902Z,99702.53
2023-04-08T01:30:45.842Z,99705.94
2023-04-08T01:33:18.282Z,99705.06
2023-04-08T01:35:48.224Z,99710.94
2023-04-08T01:38:19.828Z,99705.97
2023-04-08T01:40:52.317Z,99708.56
2023-04-08T01:43:23.299Z,99699.25
2023-04-08T01:45:58.831Z,99703.56
2023-04-08T01:48:29.246Z,99704.53
2023-04-08T01:50:59.706Z,99708.75
2023-04-08T01:53:28.595Z,99711.38
2023-04-08T01:56:03.400Z,99707.19
2023-04-08T01:58:40.728Z,99707.31
2023-04-08T02:01:13.688Z,99715.78
2023-04-08T02:03:46.060Z,99710.00
2023-04-08T02:06:16.191Z,99713.25
2023-04-08T02:08:47.244Z,99709.84
2023-04-08T02:11:16.210Z,99714.22
2023-04-08T02:13:46.417Z,99711.78
2023-04-08T02:16:23.920Z,99720.19
2023-04-08T02:18:58.482Z,99718.56
2023-04-08T02:21:34.477Z,99721.97
2023-04-08T02:24:09.859Z,99720.38
2023-04-08T02:26:40.236Z,99723.03
2023-04-08T02:29:14.724Z,99722.03
2023-04-08T02:31:44.910Z,99723.56
2023-04-08T02:34:17.574Z,99725.28
2023-04-08T02:36:47.593Z,99723.47
2023-04-08T02:39:16.481Z,99721.63
2023-04-08T02:41:45.268Z,99718.19
2023-04-08T02:44:15.573Z,99725.97
2023-04-08T02:46:44.317Z,99727.81
2023-04-08T02:49:13.153Z,99724.50
2023-04-08T02:51:41.948Z,99725.28
2023-04-08T02:54:10.752Z,99726.88
2023-04-08T02:56:39.519Z,99735.28
2023-04-08T02:59:08.287Z,99730.25
2023-04-08T03:01:38.695Z,99728.44
2023-04-08T03:04:07.574Z,99735.28
2023-04-08T03:06:36.374Z,99736.94
2023-04-08T03:09:06.264Z,99734.34
2023-04-08T03:11:35.036Z,99731.88
2023-04-08T03:14:03.783Z,99733.44
2023-04-08T03:16:32.646Z,99736.75
2023-04-08T03:19:02.951Z,99736.78
2023-04-08T03:21:32.481Z,99739.31
2023-04-08T03:24:01.238Z,99739.28
2023-04-08T03:26:30.077Z,99740.94
2023-04-08T03:28:58.912Z,99744.41
2023-04-08T03:31:28.020Z,99744.34
2023-04-08T03:33:56.866Z,99745.94
2023-04-08T03:36:27.132Z,99746.81
2023-04-08T03:38:55.970Z,99746.03
2023-04-08T03:41:24.824Z,99751.16
2023-04-08T03:43:53.614Z,99746.97
2023-04-08T03:46:22.836Z,99728.03
2023-04-08T03:48:51.853Z,99741.72
2023-04-08T03:51:20.755Z,99748.50
2023-04-08T03:53:51.386Z,99756.09
2023-04-08T03:56:20.881Z,99756.88
2023-04-08T03:58:49.790Z,99758.38
2023-04-08T04:01:18.740Z,99756.63
2023-04-08T04:03:47.573Z,99762.53
2023-04-08T04:06:16.562Z,99765.00
2023-04-08T04:08:45.323Z,99770.13
2023-04-08T04:11:15.514Z,99767.72
2023-04-08T04:13:44.362Z,99773.69
2023-04-08T04:16:13.257Z,99783.63
2023-04-08T04:18:42.504Z,99775.16
2023-04-08T04:21:11.278Z,99781.09
2023-04-08T04:23:40.199Z,99785.56
2023-04-08T04:26:11.122Z,99787.41
2023-04-08T04:28:41.761Z,99782.28
2023-04-08T04:31:19.473Z,99779.75
2023-04-08T04:33:48.701Z,99783.19
2023-04-08T04:36:17.548Z,99792.56
2023-04-08T04:38:47.658Z,99787.56
2023-04-08T04:41:17.833Z,99786.84
2023-04-08T04:43:48.022Z,99792.00
2023-04-08T04:46:16.964Z,99794.59
2023-04-08T04:48:45.729Z,99792.00
2023-04-08T04:51:14.513Z,99796.22
2023-04-08T04:53:43.187Z,99798.75
2023-04-08T04:56:12.771Z,99796.19
2023-04-08T04:58:42.453Z,99792.84
2023-04-08T05:01:12.486Z,99804.56
2023-04-08T05:03:41.405Z,99806.16
2023-04-08T05:06:10.205Z,99808.69
2023-04-08T05:08:39.143Z,99818.91
2023-04-08T05:11:11.100Z,99816.31
2023-04-08T05:13:39.972Z,99819.66
2023-04-08T05:16:09.175Z,99818.94
2023-04-08T05:18:39.635Z,99823.13
2023-04-08T05:21:08.671Z,99819.75
2023-04-08T05:23:37.416Z,99824.78
2023-04-08T05:26:09.314Z,99826.44
2023-04-08T05:28:37.990Z,99838.97
2023-04-08T05:31:06.648Z,99839.69
2023-04-08T05:33:35.876Z,99837.13
2023-04-08T05:36:06.656Z,99848.03
2023-04-08T05:38:35.978Z,99846.25
2023-04-08T05:41:04.626Z,99846.25
2023-04-08T05:43:34.711Z,99847.16
2023-04-08T05:46:08.304Z,99844.69
2023-04-08T05:48:37.730Z,99834.38
2023-04-08T05:51:08.040Z,99848.09
2023-04-08T05:53:37.182Z,99851.53
2023-04-08T05:56:06.365Z,99855.81
2023-04-08T05:58:35.172Z,99855.81
2023-04-08T06:01:03.943Z,99858.34
2023-04-08T06:03:32.867Z,99860.09
2023-04-08T06:06:01.534Z,99854.13
2023-04-08T06:08:31.860Z,99859.22
2023-04-08T06:11:00.562Z,99853.38
2023-04-08T06:13:29.749Z,99853.38
2023-04-08T06:15:58.434Z,99866.25
2023-04-08T06:18:27.240Z,99863.78
2023-04-08T06:20:55.960Z,99859.53
2023-04-08T06:23:25.014Z,99860.38
2023-04-08T06:25:56.847Z,99868.94
2023-04-08T06:28:25.887Z,99871.50
2023-04-08T06:30:54.560Z,99870.72
2023-04-08T06:33:23.247Z,99874.91
2023-04-08T06:35:52.304Z,99879.94
2023-04-08T06:38:21.010Z,99875.78
2023-04-08T06:40:49.669Z,99885.88
2023-04-08T06:43:19.926Z,99887.63
2023-04-08T06:45:48.646Z,99888.41
2023-04-08T06:48:17.301Z,99888.41
2023-04-08T06:50:46.100Z,99891.03
2023-04-08T06:53:14.798Z,99901.22
2023-04-08T06:55:43.655Z,99903.91
2023-04-08T06:58:12.240Z,99898.16
2023-04-08T07:00:43.866Z,99904.94
2023-04-08T07:03:13.199Z,99898.16
2023-04-08T07:05:42.284Z,99908.19
2023-04-08T07:08:11.100Z,99904.72
2023-04-08T07:10:39.809Z,99903.00
2023-04-08T07:13:08.631Z,99903.00
2023-04-08T07:15:37.302Z,99914.84
2023-04-08T07:18:07.569Z,99914.97
2023-04-08T07:20:38.613Z,99918.41
2023-04-08T07:23:07.485Z,99926.06
2023-04-08T07:25:36.382Z,99926.09
2023-04-08T07:28:05.499Z,99933.78
2023-04-08T07:30:34.195Z,99931.44
2023-04-08T07:33:03.058Z,99929.88
2023-04-08T07:35:33.440Z,99935.03
2023-04-08T07:38:02.262Z,99942.63
2023-04-08T07:40:31.472Z,99941.66
2023-04-08T07:43:00.204Z,99946.78
2023-04-08T07:45:28.872Z,99946.06
2023-04-08T07:47:58.077Z,99946.28
2023-04-08T07:50:26.907Z,99951.41
2023-04-08T07:52:57.161Z,99954.91
2023-04-08T07:55:26.164Z,99959.09
2023-04-08T07:57:54.985Z,99954.13
2023-04-08T08:00:24.624Z,99954.34
2023-04-08T08:02:53.468Z,99960.34
2023-04-08T08:05:22.609Z,99960.34
2023-04-08T08:07:51.735Z,99960.34
2023-04-08T08:10:21.871Z,99959.59
2023-04-08T08:12:50.631Z,99948.56
2023-04-08T08:15:19.446Z,99960.69
2023-04-08T08:17:48.223Z,99966.03
2023-04-08T08:20:16.973Z,99963.56
2023-04-08T08:22:56.822Z,99965.41
2023-04-08T08:25:28.528Z,99967.25
2023-04-08T08:27:57.579Z,99969.72
2023-04-08T08:30:26.661Z,99962.13
2023-04-08T08:32:56.776Z,99968.94
2023-04-08T08:35:25.658Z,99971.44
2023-04-08T08:37:54.421Z,99973.34
2023-04-08T08:40:23.547Z,99973.53
2023-04-08T08:42:54.137Z,99969.59
2023-04-08T08:45:22.925Z,99968.78
2023-04-08T08:47:53.003Z,99971.38
2023-04-08T08:50:21.901Z,99976.53
2023-04-08T08:52:51.352Z,99977.44
2023-04-08T08:55:36.360Z,99982.63
2023-04-08T08:58:11.024Z,99987.78
2023-04-08T09:00:41.070Z,99987.81
2023-04-08T09:03:20.841Z,99989.63
2023-04-08T09:05:53.979Z,99993.81
2023-04-08T09:08:27.406Z,99987.72
2023-04-08T09:10:56.754Z,99990.34
2023-04-08T09:13:26.866Z,99995.63
2023-04-08T09:16:06.319Z,99999.69
2023-04-08T09:18:35.866Z,100003.09
2023-04-08T09:21:06.123Z,100006.63
2023-04-08T09:23:45.946Z,100006.50
2023-04-08T09:26:16.469Z,100013.34
2023-04-08T09:29:05.823Z,100007.53
2023-04-08T09:31:41.773Z,100011.91
2023-04-08T09:34:13.441Z,100019.84
2023-04-08T09:36:44.719Z,100015.53
2023-04-08T09:39:13.297Z,100023.84
2023-04-08T09:41:42.867Z,100014.78
2023-04-08T09:44:13.645Z,100020.78
2023-04-08T09:46:52.994Z,100025.72
2023-04-08T09:49:28.709Z,100028.16
2023-04-08T09:52:08.326Z,100022.13
2023-04-08T09:54:45.733Z,100022.88
2023-04-08T09:57:19.021Z,100027.25
2023-04-08T09:59:59.605Z,100018.84
2023-04-08T10:02:35.086Z,100024.00
2023-04-08T10:05:08.415Z,100019.94
2023-04-08T10:07:37.676Z,100014.25
2023-04-08T10:10:07.877Z,100022.69
2023-04-08T10:12:37.988Z,100029.38
2023-04-08T10:15:26.197Z,100023.69
2023-04-08T10:17:55.653Z,100020.53
2023-04-08T10:20:42.930Z,100024.13
2023-04-08T10:23:13.574Z,100021.63
2023-04-08T10:25:43.075Z,100020.81
2023-04-08T10:28:26.707Z,100021.81
2023-04-08T10:30:58.325Z,100018.50
2023-04-08T10:33:38.435Z,100013.53
2023-04-08T10:36:15.575Z,100013.75
2023-04-08T10:38:44.494Z,100011.38
2023-04-08T10:41:14.560Z,100013.16
2023-04-08T10:43:43.604Z,100017.47
2023-04-08T10:46:13.754Z,100014.13
2023-04-08T10:48:42.751Z,100015.78
2023-04-08T10:51:12.462Z,100012.44
2023-04-08T10:53:41.051Z,100018.22
2023-04-08T10:56:13.676Z,100011.47
2023-04-08T10:58:50.731Z,100014.03
2023-04-08T11:01:21.551Z,99995.38
2023-04-08T11:03:51.152Z,100008.97
2023-04-08T11:06:20.948Z,100009.53
2023-04-08T11:08:49.704Z,100008.72
2023-04-08T11:11:21.748Z,100013.91
2023-04-08T11:13:53.739Z,100008.81
2023-04-08T11:16:26.410Z,100013.09
2023-04-08T11:18:55.733Z,100012.88
2023-04-08T11:21:29.931Z,100007.78
2023-04-08T11:23:59.147Z,100003.44
2023-04-08T11:26:29.000Z,100013.59
2023-04-08T11:28:58.776Z,100010.13
2023-04-08T11:31:35.766Z,100016.00
2023-04-08T11:34:04.563Z,100015.22
2023-04-08T11:36:35.482Z,100010.13
2023-04-08T11:39:09.582Z,100013.44
2023-04-08T11:41:40.769Z,100022.66
2023-04-08T11:44:09.786Z,100015.72
2023-04-08T11:46:41.653Z,100020.69
2023-04-08T11:49:12.205Z,100023.16
2023-04-08T11:51:58.398Z,100029.03
2023-04-08T11:54:30.233Z,100027.34
2023-04-08T11:56:59.655Z,100025.72
2023-04-08T11:59:29.577Z,100025.72
2023-04-08T12:02:00.441Z,100026.56
2023-04-08T12:04:30.399Z,100020.59
2023-04-08T12:06:59.387Z,100025.75
2023-04-08T12:09:28.509Z,100024.91
2023-04-08T12:11:57.733Z,100028.31
2023-04-08T12:14:28.418Z,100026.69
2023-04-08T12:16:57.647Z,100023.22
2023-04-08T12:19:27.875Z,100023.09
2023-04-08T12:21:56.556Z,100029.91
2023-04-08T12:24:25.345Z,100024.81
2023-04-08T12:26:54.195Z,100036.66
2023-04-08T12:29:22.877Z,100028.97
2023-04-08T12:31:51.896Z,100028.19
2023-04-08T12:34:20.955Z,100029.84
2023-04-08T12:36:51.257Z,100029.09
2023-04-08T12:39:20.081Z,100026.50
2023-04-08T12:41:48.930Z,100029.09
2023-04-08T12:44:17.591Z,100030.03
2023-04-08T12:46:47.503Z,100029.28
2023-04-08T12:49:16.395Z,100029.25
2023-04-08T12:51:45.059Z,100032.69
2023-04-08T12:54:15.272Z,100031.84
2023-04-08T12:56:44.625Z,100033.56
2023-04-08T12:59:13.480Z,100036.88
2023-04-08T13:01:42.313Z,100032.63
2023-04-08T13:04:11.235Z,100035.84
2023-04-08T13:06:40.029Z,100033.25
2023-04-08T13:09:08.778Z,100033.25
2023-04-08T13:11:39.034Z,100040.94
2023-04-08T13:14:07.932Z,100034.97
2023-04-08T13:16:37.456Z,100033.25
2023-04-08T13:19:06.763Z,100035.06
2023-04-08T13:21:35.354Z,100037.78
2023-04-08T13:24:06.439Z,100032.81
2023-04-08T13:26:34.818Z,100033.81
2023-04-08T13:29:05.193Z,100039.00
2023-04-08T13:31:34.324Z,100033.94
2023-04-08T13:34:03.558Z,100032.19
2023-04-08T13:36:32.794Z,100025.50
2023-04-08T13:39:01.538Z,100021.16
2023-04-08T13:41:30.322Z,100027.13
2023-04-08T13:43:59.191Z,100021.97
2023-04-08T13:46:29.401Z,100029.66
2023-04-08T13:48:58.276Z,100030.34
2023-04-08T13:51:27.523Z,100028.66
2023-04-08T13:53:56.448Z,100022.66
2023-04-08T13:56:25.096Z,100028.59
2023-04-08T13:58:57.569Z,100028.59
2023-04-08T14:01:26.801Z,100028.56
2023-04-08T14:03:56.958Z,100031.94
2023-04-08T14:06:26.857Z,100033.56
2023-04-08T14:08:55.257Z,100030.91
2023-04-08T14:11:26.312Z,100027.47
2023-04-08T14:13:55.054Z,100033.38
2023-04-08T14:16:23.774Z,100042.69
2023-04-08T14:18:52.726Z,100039.22
2023-04-08T14:21:23.107Z,100039.19
2023-04-08T14:23:52.857Z,100041.81
2023-04-08T14:26:21.433Z,100040.06
2023-04-08T14:28:50.469Z,100038.41
2023-04-08T14:31:19.672Z,100047.75
2023-04-08T14:33:48.405Z,100046.94
2023-04-08T14:36:19.384Z,100048.69
2023-04-08T14:38:49.742Z,100045.41
2023-04-08T14:41:19.174Z,100045.53
2023-04-08T14:43:47.887Z,100041.22
2023-04-08T14:46:19.688Z,100051.38
2023-04-08T14:48:48.631Z,100035.25
2023-04-08T14:51:17.368Z,100039.59
2023-04-08T14:53:46.253Z,100040.53
2023-04-08T14:56:16.809Z,100037.97
2023-04-08T14:58:45.721Z,100050.66
2023-04-08T15:01:14.454Z,100045.59
2023-04-08T15:03:43.447Z,100047.28
2023-04-08T15:06:17.293Z,100042.19
2023-04-08T15:08:46.083Z,100043.91
2023-04-08T15:11:16.339Z,100047.28
2023-04-08T15:13:45.174Z,100051.53
2023-04-08T15:16:14.015Z,100052.31
2023-04-08T15:18:43.049Z,100053.91
2023-04-08T15:21:11.816Z,100051.38
2023-04-08T15:23:42.490Z,100052.16
2023-04-08T15:26:11.567Z,100055.56
2023-04-08T15:28:41.711Z,100052.97
2023-04-08T15:31:10.609Z,100051.13
2023-04-08T15:33:42.118Z,100056.91
2023-04-08T15:36:10.938Z,100053.56
2023-04-08T15:38:40.102Z,100062.84
2023-04-08T15:41:08.896Z,100062.00
2023-04-08T15:43:37.625Z,100062.00
2023-04-08T15:46:07.946Z,100064.47
2023-04-08T15:48:37.777Z,100063.53
2023-04-08T15:51:08.490Z,100071.94
2023-04-08T15:53:37.260Z,100066.81
2023-04-08T15:56:06.843Z,100068.41
2023-04-08T15:58:35.635Z,100077.69
2023-04-08T16:01:04.367Z,100076.75
2023-04-08T16:03:34.763Z,100075.88
2023-04-08T16:06:03.767Z,100075.00
2023-04-08T16:08:33.740Z,100069.91
2023-04-08T16:11:03.744Z,100076.66
2023-04-08T16:13:34.302Z,100083.28
2023-04-08T16:16:03.686Z,100084.88
2023-04-08T16:18:33.825Z,100078.03
2023-04-08T16:21:08.007Z,100093.19
2023-04-08T16:23:38.023Z,100091.44
2023-04-08T16:26:08.200Z,100104.13
2023-04-08T16:28:39.884Z,100086.34
2023-04-08T16:31:08.894Z,100095.63
2023-04-08T16:33:39.122Z,100093.09
2023-04-08T16:36:08.086Z,100095.56
2023-04-08T16:38:37.125Z,100094.69
2023-04-08T16:41:10.128Z,100098.09
2023-04-08T16:43:39.168Z,100107.31
2023-04-08T16:46:12.487Z,100099.63
2023-04-08T16:48:44.066Z,100094.50
2023-04-08T16:51:13.123Z,100105.50
2023-04-08T16:53:42.890Z,100106.34
2023-04-08T16:56:16.398Z,100106.28
2023-04-08T16:58:45.408Z,100104.50
2023-04-08T17:01:14.695Z,100109.50
2023-04-08T17:03:45.024Z,100108.69
2023-04-08T17:06:15.019Z,100106.09
2023-04-08T17:08:44.459Z,100110.28
2023-04-08T17:11:15.572Z,100116.13
2023-04-08T17:13:45.792Z,100116.75
2023-04-08T17:16:16.389Z,100125.22
2023-04-08T17:18:47.101Z,100125.13
2023-04-08T17:21:15.870Z,100138.72
2023-04-08T17:23:44.541Z,100137.13
2023-04-08T17:26:13.666Z,100137.94
2023-04-08T17:28:43.620Z,100144.66
2023-04-08T17:31:12.677Z,100139.59
2023-04-08T17:33:41.416Z,100142.94
2023-04-08T17:36:12.540Z,100144.59
2023-04-08T17:38:41.804Z,100144.63
2023-04-08T17:41:13.426Z,100146.25
2023-04-08T17:43:45.829Z,100142.88
2023-04-08T17:46:14.701Z,100144.50
2023-04-08T17:48:43.555Z,100149.53
2023-04-08T17:51:13.705Z,100157.16
2023-04-08T17:53:43.381Z,100159.59
2023-04-08T17:56:12.124Z,100162.91
2023-04-08T17:58:40.981Z,100161.19
2023-04-08T18:01:10.405Z,100166.16
2023-04-08T18:03:39.347Z,100166.13
2023-04-08T18:06:09.257Z,100166.94
2023-04-08T18:08:39.776Z,100177.06
2023-04-08T18:11:08.724Z,100169.25
2023-04-08T18:13:37.493Z,100174.31
2023-04-08T18:16:06.916Z,100173.50
2023-04-08T18:18:38.704Z,100177.53
2023-04-08T18:21:07.571Z,100178.22
2023-04-08T18:23:37.685Z,100183.28
2023-04-08T18:26:07.943Z,100186.72
2023-04-08T18:28:36.763Z,100189.16
2023-04-08T18:31:05.515Z,100195.00
2023-04-08T18:33:34.382Z,100191.56
2023-04-08T18:36:08.465Z,100193.13
2023-04-08T18:38:37.652Z,100203.28
2023-04-08T18:41:08.220Z,100199.97
2023-04-08T18:43:37.392Z,100205.13
2023-04-08T18:46:06.176Z,100197.44
2023-04-08T18:48:35.112Z,100202.50
2023-04-08T18:51:04.447Z,100213.44
2023-04-08T18:53:33.332Z,100206.69
2023-04-08T18:56:02.054Z,100214.19
2023-04-08T18:58:33.873Z,100208.31
2023-04-08T19:01:02.628Z,100203.19
2023-04-08T19:03:31.451Z,100204.06
2023-04-08T19:06:00.260Z,100212.41
2023-04-08T19:08:29.050Z,100207.25
2023-04-08T19:10:58.212Z,100202.16
2023-04-08T19:13:27.173Z,100208.03
2023-04-08T19:15:57.679Z,100210.59
2023-04-08T19:18:26.493Z,100213.97
2023-04-08T19:20:55.261Z,100215.66
2023-04-08T19:23:24.052Z,100208.91
2023-04-08T19:25:52.826Z,100207.19
2023-04-08T19:28:21.868Z,100208.91
2023-04-08T19:30:51.330Z,100210.53
2023-04-08T19:33:21.575Z,100211.41
2023-04-08T19:35:50.622Z,100208.81
2023-04-08T19:38:19.428Z,100203.72
2023-04-08T19:40:48.279Z,100205.38
2023-04-08T19:43:17.750Z,100204.50
2023-04-08T19:45:46.701Z,100212.97
2023-04-08T19:48:15.926Z,100211.25
2023-04-08T19:50:46.356Z,100212.03
2023-04-08T19:53:15.159Z,100177.75
2023-04-08T19:55:45.202Z,100184.47
2023-04-08T19:58:14.103Z,100217.91
2023-04-08T20:00:42.800Z,100220.44
2023-04-08T20:03:11.818Z,100210.22
2023-04-08T20:05:40.796Z,100207.72
2023-04-08T20:08:11.355Z,100210.22
2023-04-08T20:10:40.295Z,100217.75
2023-04-08T20:13:09.049Z,100218.47
2023-04-08T20:15:37.759Z,100213.28
2023-04-08T20:18:06.482Z,100222.56
2023-04-08T20:20:35.551Z,100222.56
2023-04-08T20:23:04.231Z,100226.84
2023-04-08T20:25:34.605Z,100225.16
2023-04-08T20:28:03.486Z,100222.53
2023-04-08T20:30:32.270Z,100232.69
2023-04-08T20:33:01.252Z,100219.16
2023-04-08T20:35:30.075Z,100217.56
2023-04-08T20:37:58.929Z,100215.75
2023-04-08T20:40:28.283Z,100221.69
2023-04-08T20:42:58.551Z,100222.34
2023-04-08T20:45:27.511Z,100218.00
2023-04-08T20:47:56.674Z,100218.69
2023-04-08T20:50:25.497Z,100219.41
2023-04-08T20:52:54.300Z,100218.59
2023-04-08T20:55:23.021Z,100224.47
2023-04-08T20:57:51.794Z,100227.03
2023-04-08T21:00:22.202Z,100217.00
2023-04-08T21:02:51.322Z,100228.06
2023-04-08T21:05:20.293Z,100229.06
2023-04-08T21:07:49.213Z,100229.88
2023-04-08T21:10:17.923Z,100226.41
2023-04-08T21:12:46.695Z,100229.69
2023-04-08T21:15:15.607Z,100232.88
2023-04-08T21:17:45.862Z,100235.28
2023-04-08T21:20:14.759Z,100236.16
2023-04-08T21:22:43.489Z,100233.84
2023-04-08T21:25:12.627Z,100232.19
2023-04-08T21:27:41.357Z,100227.03
2023-04-08T21:30:11.001Z,100231.09
2023-04-08T21:32:39.991Z,100236.78
2023-04-08T21:35:11.110Z,100234.31
2023-04-08T21:37:39.893Z,100239.59
2023-04-08T21:40:09.879Z,100235.38
2023-04-08T21:42:39.035Z,100235.53
2023-04-08T21:45:08.740Z,100232.22
2023-04-08T21:47:37.249Z,100233.84
2023-04-08T21:50:07.070Z,100232.78
2023-04-08T21:52:37.951Z,100242.03
2023-04-08T21:55:08.396Z,100237.78
2023-04-08T21:57:37.209Z,100239.41
2023-04-08T22:00:13.499Z,100237.78
2023-04-08T22:02:45.485Z,100236.16
2023-04-08T22:05:14.445Z,100234.41
2023-04-08T22:07:44.632Z,100236.06
2023-04-08T22:10:13.466Z,100230.19
2023-04-08T22:12:42.494Z,100232.78
2023-04-08T22:15:12.375Z,100233.84
2023-04-08T22:17:41.107Z,100232.97
2023-04-08T22:20:10.910Z,100226.19
2023-04-08T22:22:39.763Z,100227.91
2023-04-08T22:25:11.472Z,100234.66
2023-04-08T22:27:40.429Z,100232.09
2023-04-08T22:30:10.238Z,100225.94
2023-04-08T22:32:39.219Z,100230.03
2023-04-08T22:35:08.652Z,100224.13
2023-04-08T22:37:37.429Z,100227.56
2023-04-08T22:40:07.677Z,100228.16
2023-04-08T22:42:37.984Z,100227.38
2023-04-08T22:45:07.920Z,100217.44
2023-04-08T22:47:37.875Z,100221.41
2023-04-08T22:50:08.084Z,100225.34
2023-04-08T22:52:36.924Z,100226.88
2023-04-08T22:55:06.564Z,100230.38
2023-04-08T22:57:35.193Z,100226.38
2023-04-08T23:00:07.165Z,100223.84
2023-04-08T23:02:36.434Z,100223.84
2023-04-08T23:05:05.621Z,100222.97
2023-04-08T23:07:34.553Z,100225.44
2023-04-08T23:10:03.363Z,100223.78
2023-04-08T23:12:32.181Z,100222.16
2023-04-08T23:15:01.014Z,100226.34
2023-04-08T23:17:31.304Z,100216.13
2023-04-08T23:20:00.153Z,100216.84
2023-04-08T23:22:28.898Z,100217.53
2023-04-08T23:24:57.940Z,100214.88
2023-04-08T23:27:26.632Z,100214.19
2023-04-08T23:29:55.455Z,100215.13
2023-04-08T23:32:24.105Z,100211.78
2023-04-08T23:34:54.367Z,100206.53
2023-04-08T23:37:25.060Z,100208.34
2023-04-08T23:39:53.816Z,100211.78
2023-04-08T23:42:27.732Z,100212.56
2023-04-08T23:44:56.475Z,100194.72
2023-04-08T23:47:25.244Z,100213.41
2023-04-08T23:49:55.632Z,100203.19
2023-04-08T23:52:24.565Z,100207.38
2023-04-08T23:54:53.394Z,100206.63
2023-04-08T23:57:22.539Z,100201.59
2023-04-08T23:59:51.386Z,100205.75
